Time;durP1;ratioP1;P1;durP2;ratioP2;P2;SDS_P1;SDS_P2;PMS_P1;PMS_P2;Temp;Humidity;BMP_temperature;BMP_pressure;BME280_temperature;BME280_humidity;BME280_pressure;Samples;Min_cycle;Max_cycle;Signal;HPM_P1;HPM_P2
2024/01/05 00:00:37;;;;;;;;;;;;;;;3.69;89.70;99355.03;5053601;28;19929;-83
2024/01/05 00:03:04;;;;;;;;;;;;;;;3.61;90.19;99343.88;5052895;28;19925;-82
2024/01/05 00:05:31;;;;;;;;;;;;;;;3.57;90.35;99352.53;5050931;28;20020;-82
2024/01/05 00:07:57;;;;;;;;;;;;;;;3.53;90.51;99348.22;5054465;28;19975;-82
2024/01/05 00:10:24;;;;;;;;;;;;;;;3.53;90.50;99349.06;5045981;28;19924;-82
2024/01/05 00:12:51;;;;;;;;;;;;;;;3.48;90.62;99338.72;5054324;28;19992;-82
2024/01/05 00:15:18;;;;;;;;;;;;;;;3.45;90.51;99328.34;5053714;28;20314;-82
2024/01/05 00:17:45;;;;;;;;;;;;;;;3.47;90.66;99325.75;5054372;28;20020;-82
2024/01/05 00:20:12;;;;;;;;;;;;;;;3.44;90.75;99331.81;5053778;28;19925;-82
2024/01/05 00:22:39;;;;;;;;;;;;;;;3.42;90.76;99328.38;5043119;28;19932;-83
2024/01/05 00:25:06;;;;;;;;;;;;;;;3.41;90.70;99320.59;5054187;28;19924;-83
2024/01/05 00:27:33;;;;;;;;;;;;;;;3.38;90.97;99325.78;5054315;28;20015;-83
2024/01/05 00:30:00;;;;;;;;;;;;;;;3.43;90.97;99321.44;5053851;28;19925;-82
2024/01/05 00:32:26;;;;;;;;;;;;;;;3.42;90.97;99322.31;5054379;28;19928;-83
2024/01/05 00:34:53;;;;;;;;;;;;;;;3.42;91.00;99323.19;5054881;28;19973;-82
2024/01/05 00:37:20;;;;;;;;;;;;;;;3.36;91.13;99320.63;5052433;28;19925;-83
2024/01/05 00:39:46;;;;;;;;;;;;;;;3.34;90.78;99314.56;5054271;28;19925;-82
2024/01/05 00:42:13;;;;;;;;;;;;;;;3.31;90.31;99315.41;5054918;28;19948;-82
2024/01/05 00:44:40;;;;;;;;;;;;;;;3.24;90.62;99323.22;5053928;28;19995;-82
2024/01/05 00:47:08;;;;;;;;;;;;;;;3.22;90.59;99319.78;5052397;28;19950;-82
2024/01/05 00:49:35;;;;;;;;;;;;;;;3.22;90.17;99315.47;5053842;28;19932;-82
2024/01/05 00:52:02;;;;;;;;;;;;;;;3.12;89.68;99322.41;5053916;28;19928;-82
2024/01/05 00:54:28;;;;;;;;;;;;;;;3.01;90.19;99320.69;5053793;28;19929;-82
2024/01/05 00:56:55;;;;;;;;;;;;;;;3.20;90.63;99314.63;5054072;28;19925;-82
2024/01/05 00:59:22;;;;;;;;;;;;;;;3.21;90.71;99318.06;5053435;28;19924;-82
2024/01/05 01:01:48;;;;;;;;;;;;;;;3.15;90.69;99318.94;5053908;28;20392;-82
2024/01/05 01:04:15;;;;;;;;;;;;;;;3.19;91.23;99320.66;5053992;28;19924;-83
2024/01/05 01:06:42;;;;;;;;;;;;;;;3.20;91.25;99309.44;5052402;28;19955;-82
2024/01/05 01:09:10;;;;;;;;;;;;;;;3.18;91.63;99299.94;5054307;28;19925;-82
2024/01/05 01:11:37;;;;;;;;;;;;;;;3.13;91.28;99295.63;5052782;28;19968;-82
2024/01/05 01:14:04;;;;;;;;;;;;;;;3.02;91.44;99302.56;5053484;28;20219;-82
2024/01/05 01:16:31;;;;;;;;;;;;;;;2.94;91.22;99299.09;5052776;28;19956;-82
2024/01/05 01:18:59;;;;;;;;;;;;;;;2.93;91.09;99287.03;5053277;28;19929;-82
2024/01/05 01:21:25;;;;;;;;;;;;;;;2.96;91.17;99297.41;5053826;28;19925;-82
2024/01/05 01:23:52;;;;;;;;;;;;;;;3.00;91.09;99299.13;5054130;28;19925;-82
2024/01/05 01:26:19;;;;;;;;;;;;;;;2.93;91.05;99292.22;5052419;28;19929;-82
2024/01/05 01:28:45;;;;;;;;;;;;;;;2.89;91.39;99270.63;5052491;28;19931;-83
2024/01/05 01:31:12;;;;;;;;;;;;;;;2.91;91.14;99271.50;5048010;28;19925;-82
2024/01/05 01:33:39;;;;;;;;;;;;;;;2.92;91.17;99277.53;5050057;28;19929;-83
2024/01/05 01:36:06;;;;;;;;;;;;;;;2.96;91.09;99276.66;5052402;28;20015;-83
2024/01/05 01:38:33;;;;;;;;;;;;;;;3.08;90.95;99280.94;5050478;28;19978;-82
2024/01/05 01:40:59;;;;;;;;;;;;;;;3.06;90.68;99270.56;5050391;28;19935;-82
2024/01/05 01:43:26;;;;;;;;;;;;;;;3.05;90.52;99271.44;5054644;28;19925;-83
2024/01/05 01:45:57;;;;;;;;;;;;;;;3.07;90.86;99259.34;5056443;28;20376;-82
2024/01/05 01:48:24;;;;;;;;;;;;;;;3.05;90.60;99255.88;5053884;28;20046;-82
2024/01/05 01:50:51;;;;;;;;;;;;;;;3.03;90.93;99254.19;5036561;28;19948;-82
2024/01/05 01:53:19;;;;;;;;;;;;;;;3.02;90.89;99245.53;5049924;28;19939;-83
2024/01/05 01:55:47;;;;;;;;;;;;;;;2.98;90.81;99248.13;5042399;28;19925;-82
2024/01/05 01:58:14;;;;;;;;;;;;;;;2.99;90.96;99247.28;5053566;28;19932;-82
2024/01/05 02:00:41;;;;;;;;;;;;;;;3.01;91.24;99248.97;5053608;28;19932;-81
2024/01/05 02:03:08;;;;;;;;;;;;;;;3.00;91.00;99243.81;5057582;28;20375;-83
2024/01/05 02:05:35;;;;;;;;;;;;;;;2.98;91.13;99249.00;5056757;28;19924;-82
2024/01/05 02:08:02;;;;;;;;;;;;;;;2.96;91.14;99235.19;5057048;28;19967;-82
2024/01/05 02:10:28;;;;;;;;;;;;;;;2.96;91.07;99249.00;5056700;28;19925;-84
2024/01/05 02:12:56;;;;;;;;;;;;;;;2.93;91.45;99245.56;5056437;28;19933;-82
2024/01/05 02:15:23;;;;;;;;;;;;;;;2.95;91.17;99246.41;5053612;28;19925;-83
2024/01/05 02:17:49;;;;;;;;;;;;;;;2.93;91.33;99240.38;5058726;28;19978;-83
2024/01/05 02:20:16;;;;;;;;;;;;;;;2.93;90.95;99240.38;5058130;28;19975;-83
2024/01/05 02:22:44;;;;;;;;;;;;;;;2.90;91.25;99236.06;5058237;28;19970;-83
2024/01/05 02:25:11;;;;;;;;;;;;;;;2.93;91.53;99230.03;5056870;28;20012;-82
2024/01/05 02:27:37;;;;;;;;;;;;;;;2.98;91.31;99232.59;5057774;28;19924;-82
2024/01/05 02:30:04;;;;;;;;;;;;;;;3.02;91.28;99231.72;5058091;28;19925;-83
2024/01/05 02:32:31;;;;;;;;;;;;;;;3.06;91.38;99223.06;5053815;28;19979;-83
2024/01/05 02:34:58;;;;;;;;;;;;;;;3.03;91.21;99221.34;5057363;28;19931;-83
2024/01/05 02:37:25;;;;;;;;;;;;;;;3.06;91.17;99221.31;5057955;28;19932;-83
2024/01/05 02:39:51;;;;;;;;;;;;;;;3.05;91.26;99218.75;5056987;28;19932;-83
2024/01/05 02:42:18;;;;;;;;;;;;;;;3.09;91.29;99216.13;5058167;28;19925;-83
2024/01/05 02:44:45;;;;;;;;;;;;;;;3.16;91.09;99211.78;5058520;28;19931;-82
2024/01/05 02:47:11;;;;;;;;;;;;;;;3.15;91.15;99211.78;5058131;28;19931;-83
2024/01/05 02:49:38;;;;;;;;;;;;;;;3.18;91.28;99209.19;5052490;28;19925;-82
2024/01/05 02:52:05;;;;;;;;;;;;;;;3.16;91.41;99203.13;5055188;28;19925;-82
2024/01/05 02:54:31;;;;;;;;;;;;;;;3.11;91.36;99205.75;5056760;28;19925;-82
2024/01/05 02:56:58;;;;;;;;;;;;;;;3.08;91.47;99203.16;5060211;28;20332;-83
2024/01/05 02:59:25;;;;;;;;;;;;;;;3.02;91.48;99196.28;5054726;28;19988;-84
2024/01/05 03:01:52;;;;;;;;;;;;;;;2.99;91.59;99187.66;5054239;28;19932;-83
2024/01/05 03:04:18;;;;;;;;;;;;;;;2.93;91.41;99185.97;5057630;28;19932;-83
2024/01/05 03:06:45;;;;;;;;;;;;;;;2.93;91.57;99178.19;5055794;28;19933;-84
2024/01/05 03:09:12;;;;;;;;;;;;;;;2.92;91.76;99181.63;5056610;28;20422;-83
2024/01/05 03:11:39;;;;;;;;;;;;;;;2.93;91.56;99173.84;5057545;28;19924;-82
2024/01/05 03:14:06;;;;;;;;;;;;;;;2.92;91.50;99177.31;5057572;28;19947;-84
2024/01/05 03:16:32;;;;;;;;;;;;;;;2.91;91.61;99173.00;5056023;28;19924;-83
2024/01/05 03:18:59;;;;;;;;;;;;;;;2.96;91.43;99167.81;5062287;28;19925;-83
2024/01/05 03:21:26;;;;;;;;;;;;;;;2.96;91.00;99167.81;5056571;28;19933;-83
2024/01/05 03:23:53;;;;;;;;;;;;;;;3.01;90.74;99166.03;5066203;28;19925;-83
2024/01/05 03:26:19;;;;;;;;;;;;;;;3.05;90.89;99151.34;5060181;28;19929;-84
2024/01/05 03:28:46;;;;;;;;;;;;;;;3.11;91.26;99152.19;5063376;28;19935;-82
2024/01/05 03:31:13;;;;;;;;;;;;;;;3.29;90.94;99150.34;5055734;28;19925;-83
2024/01/05 03:33:40;;;;;;;;;;;;;;;3.37;90.71;99143.38;5057603;28;20250;-83
2024/01/05 03:36:08;;;;;;;;;;;;;;;3.38;90.66;99142.50;5057008;28;19925;-84
2024/01/05 03:38:34;;;;;;;;;;;;;;;3.38;90.57;99139.91;5056750;28;19932;-83
2024/01/05 03:41:01;;;;;;;;;;;;;;;3.41;90.71;99139.88;5057079;28;19940;-83
2024/01/05 03:43:27;;;;;;;;;;;;;;;3.37;90.69;99138.19;5057110;28;19925;-83
2024/01/05 03:45:54;;;;;;;;;;;;;;;3.37;90.25;99143.38;5056824;28;19931;-83
2024/01/05 03:48:22;;;;;;;;;;;;;;;3.36;90.25;99133.88;5055176;28;20351;-83
2024/01/05 03:50:49;;;;;;;;;;;;;;;3.31;90.10;99127.84;5057074;28;19925;-82
2024/01/05 03:53:16;;;;;;;;;;;;;;;3.35;89.81;99134.75;5057557;28;20020;-84
2024/01/05 03:55:43;;;;;;;;;;;;;;;3.34;90.14;99130.44;5063451;28;19925;-83
2024/01/05 03:58:10;;;;;;;;;;;;;;;3.35;90.30;99132.16;5056640;28;19951;-83
2024/01/05 04:00:36;;;;;;;;;;;;;;;3.36;90.31;99120.03;5055947;28;19932;-84
2024/01/05 04:03:03;;;;;;;;;;;;;;;3.37;90.10;99120.03;5056686;28;19931;-83
2024/01/05 04:05:30;;;;;;;;;;;;;;;3.33;90.26;99110.53;5056779;28;19936;-82
2024/01/05 04:07:56;;;;;;;;;;;;;;;3.40;90.38;99114.81;5056294;28;20023;-83
2024/01/05 04:10:23;;;;;;;;;;;;;;;3.40;90.44;99117.41;5056649;28;19928;-83
2024/01/05 04:12:50;;;;;;;;;;;;;;;3.50;90.57;99113.03;5059106;28;19925;-82
2024/01/05 04:15:16;;;;;;;;;;;;;;;3.53;90.64;99115.59;5047396;28;19948;-83
2024/01/05 04:17:43;;;;;;;;;;;;;;;3.59;90.75;99106.91;5056727;28;19928;-84
2024/01/05 04:20:10;;;;;;;;;;;;;;;3.55;90.29;99120.75;5056912;28;19978;-83
2024/01/05 04:22:36;;;;;;;;;;;;;;;3.54;90.17;99116.47;5060316;28;19924;-83
2024/01/05 04:25:03;;;;;;;;;;;;;;;3.54;90.25;99109.53;5059659;28;19950;-84
2024/01/05 04:27:30;;;;;;;;;;;;;;;3.59;90.36;99106.91;5059576;28;19947;-82
2024/01/05 04:29:57;;;;;;;;;;;;;;;3.59;90.41;99112.09;5063399;28;19931;-84
2024/01/05 04:32:23;;;;;;;;;;;;;;;3.64;90.44;99105.16;5064482;28;19924;-82
2024/01/05 04:34:50;;;;;;;;;;;;;;;3.63;90.56;99104.25;5055005;28;19932;-83
2024/01/05 04:37:17;;;;;;;;;;;;;;;3.62;90.53;99104.28;5055382;28;19924;-84
2024/01/05 04:39:43;;;;;;;;;;;;;;;3.61;90.46;99102.59;5056884;28;19925;-82
2024/01/05 04:42:10;;;;;;;;;;;;;;;3.64;90.40;99099.97;5057090;28;20027;-83
2024/01/05 04:44:37;;;;;;;;;;;;;;;3.61;90.35;99102.59;5055169;28;19964;-84
2024/01/05 04:47:04;;;;;;;;;;;;;;;3.60;90.22;99101.69;5066077;28;19925;-83
2024/01/05 04:49:32;;;;;;;;;;;;;;;3.62;90.29;99102.56;5060912;28;19940;-83
2024/01/05 04:51:59;;;;;;;;;;;;;;;3.63;90.44;99104.25;5057680;28;19947;-82
2024/01/05 04:54:26;;;;;;;;;;;;;;;3.70;90.13;99109.44;5074755;28;19933;-82
2024/01/05 04:56:53;;;;;;;;;;;;;;;3.69;90.18;99105.94;5062177;28;20383;-85
2024/01/05 04:59:20;;;;;;;;;;;;;;;3.72;90.38;99105.94;5068224;28;19925;-83
2024/01/05 05:01:46;;;;;;;;;;;;;;;3.73;90.52;99102.47;5067753;28;19924;-84
2024/01/05 05:04:14;;;;;;;;;;;;;;;3.71;90.14;99096.44;5056942;28;19936;-84
2024/01/05 05:06:41;;;;;;;;;;;;;;;3.75;90.02;99100.72;5057503;28;19924;-82
2024/01/05 05:09:09;;;;;;;;;;;;;;;3.79;90.51;99093.75;5063454;28;19925;-82
2024/01/05 05:11:35;;;;;;;;;;;;;;;3.75;90.28;99108.50;5055103;28;19925;-82
2024/01/05 05:14:02;;;;;;;;;;;;;;;3.76;90.48;99110.22;5073554;28;19951;-82
2024/01/05 05:16:28;;;;;;;;;;;;;;;3.75;90.35;99103.31;5070270;28;19956;-82
2024/01/05 05:18:55;;;;;;;;;;;;;;;3.75;90.27;99103.31;5059593;28;19924;-83
2024/01/05 05:21:22;;;;;;;;;;;;;;;3.75;90.71;99107.63;5049585;28;19929;-82
2024/01/05 05:23:49;;;;;;;;;;;;;;;3.74;90.68;99106.78;5057297;28;20007;-83
2024/01/05 05:26:15;;;;;;;;;;;;;;;3.76;90.54;99115.41;5054327;28;19950;-82
2024/01/05 05:28:42;;;;;;;;;;;;;;;3.81;90.62;99107.59;5069495;28;19935;-84
2024/01/05 05:31:09;;;;;;;;;;;;;;;3.85;90.74;99108.41;5058924;28;19931;-83
2024/01/05 05:33:36;;;;;;;;;;;;;;;3.87;91.05;99106.66;5061852;28;19929;-85
2024/01/05 05:36:02;;;;;;;;;;;;;;;3.78;90.76;99113.69;5054341;28;19925;-83
2024/01/05 05:38:29;;;;;;;;;;;;;;;3.82;91.03;99105.00;5062152;28;19924;-82
2024/01/05 05:40:56;;;;;;;;;;;;;;;3.80;91.14;99109.31;5062942;28;19988;-84
2024/01/05 05:43:23;;;;;;;;;;;;;;;3.79;91.08;99105.00;5058824;28;19925;-83
2024/01/05 05:45:49;;;;;;;;;;;;;;;3.85;91.32;99103.22;5057776;28;19925;-82
2024/01/05 05:48:16;;;;;;;;;;;;;;;3.79;91.04;99110.19;5055480;28;19932;-84
2024/01/05 05:50:43;;;;;;;;;;;;;;;3.88;91.39;99106.69;5063002;28;20016;-84
2024/01/05 05:53:10;;;;;;;;;;;;;;;3.91;91.13;99108.34;5051770;28;19925;-83
2024/01/05 05:55:36;;;;;;;;;;;;;;;3.90;91.18;99111.84;5055384;28;19932;-84
2024/01/05 05:58:03;;;;;;;;;;;;;;;3.91;91.53;99113.53;5060957;28;19925;-84
2024/01/05 06:00:31;;;;;;;;;;;;;;;3.89;91.33;99110.97;5058408;28;20007;-83
2024/01/05 06:02:58;;;;;;;;;;;;;;;3.92;91.27;99112.69;5057898;28;20015;-85
2024/01/05 06:05:25;;;;;;;;;;;;;;;3.92;91.18;99112.69;5058592;28;19925;-84
2024/01/05 06:07:51;;;;;;;;;;;;;;;3.90;91.41;99115.28;5060129;28;20394;-84
2024/01/05 06:10:18;;;;;;;;;;;;;;;3.87;90.91;99117.91;5063987;28;19925;-84
2024/01/05 06:12:45;;;;;;;;;;;;;;;3.87;91.10;99117.91;5052343;28;19924;-84
2024/01/05 06:15:12;;;;;;;;;;;;;;;3.88;90.91;99123.97;5049986;28;19947;-83
2024/01/05 06:17:38;;;;;;;;;;;;;;;3.95;91.24;99116.13;5060903;28;19925;-85
2024/01/05 06:20:08;;;;;;;;;;;;;;;3.95;91.32;99125.63;5050779;28;19941;-83
2024/01/05 06:22:35;;;;;;;;;;;;;;;4.00;91.34;99113.47;5050396;28;19925;-85
2024/01/05 06:25:01;;;;;;;;;;;;;;;3.99;91.04;99120.38;5050539;28;20047;-85
2024/01/05 06:27:28;;;;;;;;;;;;;;;4.04;90.99;99122.97;5054576;28;19960;-85
2024/01/05 06:30:04;;;;;;;;;;;;;;;4.00;91.05;99123.88;5047490;28;19990;-85
2024/01/05 06:32:31;;;;;;;;;;;;;;;4.00;90.97;99123.88;5051491;28;19983;-85
2024/01/05 06:34:58;;;;;;;;;;;;;;;3.99;90.86;99127.31;5047968;28;19957;-85
2024/01/05 06:37:24;;;;;;;;;;;;;;;3.94;90.85;99132.56;5049502;28;19931;-84
2024/01/05 06:39:52;;;;;;;;;;;;;;;3.98;91.13;99130.78;5050390;28;19925;-85
2024/01/05 06:42:19;;;;;;;;;;;;;;;4.26;90.62;99125.31;5048979;28;19932;-85
2024/01/05 06:44:45;;;;;;;;;;;;;;;4.11;90.77;99127.22;5051112;28;19967;-85
2024/01/05 06:47:12;;;;;;;;;;;;;;;4.03;90.68;99128.16;5044744;28;19936;-85
2024/01/05 06:49:39;;;;;;;;;;;;;;;3.97;90.61;99134.28;5046973;28;19939;-84
2024/01/05 06:52:05;;;;;;;;;;;;;;;3.96;90.55;99132.56;5042897;28;20015;-85
2024/01/05 06:54:32;;;;;;;;;;;;;;;3.89;90.60;99134.31;5051280;28;19929;-84
2024/01/05 06:56:59;;;;;;;;;;;;;;;3.88;90.59;99129.16;5050737;28;19933;-85
2024/01/05 06:59:30;;;;;;;;;;;;;;;3.70;89.80;99125.84;5049184;28;19924;-87
2024/01/05 07:01:57;;;;;;;;;;;;;;;3.71;89.95;99130.16;5046029;28;19990;-83
2024/01/05 07:04:23;;;;;;;;;;;;;;;3.70;89.59;99136.22;5045528;28;19931;-83
2024/01/05 07:06:50;;;;;;;;;;;;;;;3.61;89.74;99141.50;5048101;28;19925;-83
2024/01/05 07:09:16;;;;;;;;;;;;;;;3.61;89.92;99144.09;5049942;28;19948;-82
2024/01/05 07:11:43;;;;;;;;;;;;;;;3.61;89.77;99141.50;5048494;28;19933;-84
2024/01/05 07:14:11;;;;;;;;;;;;;;;3.71;90.34;99142.25;5046408;28;20037;-83
2024/01/05 07:16:37;;;;;;;;;;;;;;;3.70;90.82;99149.19;5049595;28;19929;-83
2024/01/05 07:19:04;;;;;;;;;;;;;;;3.71;90.92;99148.34;5051348;28;20020;-82
2024/01/05 07:21:33;;;;;;;;;;;;;;;3.75;90.49;99139.66;5049668;28;19975;-83
2024/01/05 07:24:00;;;;;;;;;;;;;;;3.81;91.26;99131.81;5046693;28;19925;-82
2024/01/05 07:26:26;;;;;;;;;;;;;;;3.83;91.19;99124.84;5050375;28;19925;-83
2024/01/05 07:28:53;;;;;;;;;;;;;;;3.87;91.33;99133.50;5050235;28;19925;-82
2024/01/05 07:31:25;;;;;;;;;;;;;;;3.81;90.91;99134.41;5050272;28;19932;-82
2024/01/05 07:33:52;;;;;;;;;;;;;;;3.79;90.96;99141.31;5048034;28;19928;-83
2024/01/05 07:36:19;;;;;;;;;;;;;;;3.83;90.82;99134.38;5047863;28;20322;-82
2024/01/05 07:38:46;;;;;;;;;;;;;;;4.12;91.09;99139.31;5048214;28;20406;-83
2024/01/05 07:41:16;;;;;;;;;;;;;;;3.97;90.67;99139.47;5043065;28;19925;-83
2024/01/05 07:43:43;;;;;;;;;;;;;;;3.95;90.92;99138.59;5044145;28;19939;-83
2024/01/05 07:46:10;;;;;;;;;;;;;;;3.97;90.74;99139.47;5045845;28;19932;-83
2024/01/05 07:48:40;;;;;;;;;;;;;;;3.97;90.62;99129.09;5044849;28;19936;-83
2024/01/05 07:51:08;;;;;;;;;;;;;;;3.96;90.67;99127.34;5044947;28;19925;-83
2024/01/05 07:53:34;;;;;;;;;;;;;;;3.96;90.40;99117.81;5041591;28;19926;-83
2024/01/05 07:56:02;;;;;;;;;;;;;;;3.95;90.36;99110.06;5043655;28;19932;-83
2024/01/05 07:58:29;;;;;;;;;;;;;;;3.94;90.16;99110.91;5044755;28;19931;-84
2024/01/05 08:00:55;;;;;;;;;;;;;;;3.99;89.85;99102.22;5043765;28;20011;-84
2024/01/05 08:03:22;;;;;;;;;;;;;;;3.98;89.77;99107.44;5044841;28;20407;-83
2024/01/05 08:05:49;;;;;;;;;;;;;;;3.93;89.66;99107.47;5043382;28;19929;-83
2024/01/05 08:08:16;;;;;;;;;;;;;;;3.93;89.73;99111.81;5043224;28;19935;-84
2024/01/05 08:10:42;;;;;;;;;;;;;;;3.96;89.98;99096.22;5041115;28;20019;-83
2024/01/05 08:13:09;;;;;;;;;;;;;;;4.03;89.87;99095.28;5046200;28;19932;-83
2024/01/05 08:15:36;;;;;;;;;;;;;;;3.98;89.80;99091.84;5048728;28;19925;-83
2024/01/05 08:18:03;;;;;;;;;;;;;;;3.98;89.79;99094.44;5048251;28;19939;-83
2024/01/05 08:20:30;;;;;;;;;;;;;;;4.08;89.81;99096.06;5042590;28;19966;-83
2024/01/05 08:23:00;;;;;;;;;;;;;;;4.11;89.56;99098.66;5049640;28;19925;-83
2024/01/05 08:25:27;;;;;;;;;;;;;;;4.18;89.72;99102.88;5049608;28;19924;-84
2024/01/05 08:27:53;;;;;;;;;;;;;;;4.22;89.28;99098.53;5047519;28;19931;-84
2024/01/05 08:30:21;;;;;;;;;;;;;;;4.30;89.58;99106.25;5047593;28;19992;-83
2024/01/05 08:32:51;;;;;;;;;;;;;;;4.33;89.44;99114.00;5045582;28;20392;-84
2024/01/05 08:35:18;;;;;;;;;;;;;;;4.39;89.34;99111.34;5043876;28;19960;-83
2024/01/05 08:37:45;;;;;;;;;;;;;;;4.43;89.25;99105.25;5048552;28;19936;-83
2024/01/05 08:40:12;;;;;;;;;;;;;;;4.50;89.19;99098.22;5041044;28;19925;-83
2024/01/05 08:42:40;;;;;;;;;;;;;;;4.53;89.35;99091.28;5048399;28;19925;-83
2024/01/05 08:45:08;;;;;;;;;;;;;;;4.60;88.81;99091.19;5042829;28;19948;-85
2024/01/05 08:47:36;;;;;;;;;;;;;;;4.61;88.38;99090.31;5049993;28;19937;-83
2024/01/05 08:50:03;;;;;;;;;;;;;;;4.71;88.31;99081.53;5042721;28;19952;-83
2024/01/05 08:52:30;;;;;;;;;;;;;;;4.73;88.16;99079.75;5047742;28;19931;-83
2024/01/05 08:54:57;;;;;;;;;;;;;;;4.82;88.46;99089.16;5051793;28;20023;-83
2024/01/05 08:57:23;;;;;;;;;;;;;;;4.91;88.28;99098.56;5052662;28;19929;-84
2024/01/05 08:59:50;;;;;;;;;;;;;;;4.93;88.09;99099.44;5050496;28;19991;-83
2024/01/05 09:02:17;;;;;;;;;;;;;;;4.98;87.78;99105.41;5052932;28;19925;-83
2024/01/05 09:04:44;;;;;;;;;;;;;;;4.93;87.94;99100.28;5044961;28;19928;-84
2024/01/05 09:07:11;;;;;;;;;;;;;;;5.00;87.48;99098.47;5047628;28;19929;-83
2024/01/05 09:09:37;;;;;;;;;;;;;;;5.00;87.58;99093.28;5051685;28;19924;-83
2024/01/05 09:12:04;;;;;;;;;;;;;;;4.97;87.75;99098.50;5051881;28;19925;-83
2024/01/05 09:14:31;;;;;;;;;;;;;;;5.04;87.67;99100.16;5046469;28;19925;-83
2024/01/05 09:16:58;;;;;;;;;;;;;;;5.11;87.50;99109.56;5052449;28;19925;-81
2024/01/05 09:19:24;;;;;;;;;;;;;;;5.21;87.65;99112.91;5050455;28;19940;-82
2024/01/05 09:21:52;;;;;;;;;;;;;;;5.32;86.71;99110.16;5047578;28;19987;-81
2024/01/05 09:24:18;;;;;;;;;;;;;;;5.36;86.49;99111.84;5051590;28;19978;-81
2024/01/05 09:26:46;;;;;;;;;;;;;;;5.47;86.04;99109.91;5048645;28;19928;-81
2024/01/05 09:29:13;;;;;;;;;;;;;;;5.71;86.50;99115.63;5046133;28;19924;-81
2024/01/05 09:31:44;;;;;;;;;;;;;;;5.85;86.03;99121.47;5048971;28;19987;-81
2024/01/05 09:34:11;;;;;;;;;;;;;;;6.00;86.12;99115.16;5057992;28;20019;-81
2024/01/05 09:36:39;;;;;;;;;;;;;;;6.06;85.66;99114.19;5052279;28;19925;-82
2024/01/05 09:39:05;;;;;;;;;;;;;;;6.05;85.39;99120.28;5059552;28;19928;-82
2024/01/05 09:41:32;;;;;;;;;;;;;;;6.12;85.10;99119.28;5045266;28;19932;-82
2024/01/05 09:44:02;;;;;;;;;;;;;;;6.02;85.31;99128.13;5043767;28;19929;-82
2024/01/05 09:46:29;;;;;;;;;;;;;;;6.03;85.21;99132.47;5047516;28;19925;-82
2024/01/05 09:49:01;;;;;;;;;;;;;;;6.03;84.92;99130.72;5046484;28;19936;-81
2024/01/05 09:51:29;;;;;;;;;;;;;;;6.02;85.35;99139.41;5052515;28;19933;-82
2024/01/05 09:53:56;;;;;;;;;;;;;;;6.13;85.67;99136.63;5053035;28;19925;-81
2024/01/05 09:56:22;;;;;;;;;;;;;;;6.19;85.12;99141.72;5050342;28;19968;-81
2024/01/05 09:58:50;;;;;;;;;;;;;;;6.30;85.35;99132.84;5029005;28;19933;-82
2024/01/05 10:01:26;;;;;;;;;;;;;;;6.36;84.54;99144.03;5056336;28;19925;-82
2024/01/05 10:03:57;;;;;;;;;;;;;;;6.42;84.72;99143.06;5051259;28;19925;-81
2024/01/05 10:06:25;;;;;;;;;;;;;;;6.49;84.40;99136.84;5060268;28;19947;-82
2024/01/05 10:08:57;;;;;;;;;;;;;;;6.61;84.89;99133.13;5051638;28;19924;-81
2024/01/05 10:11:40;;;;;;;;;;;;;;;6.70;83.84;99132.94;5051986;28;19924;-82
2024/01/05 10:14:07;;;;;;;;;;;;;;;6.88;83.83;99139.53;5041981;28;19931;-82
2024/01/05 10:16:36;;;;;;;;;;;;;;;6.94;83.54;99134.19;5052744;28;19933;-81
2024/01/05 10:19:16;;;;;;;;;;;;;;;6.98;82.85;99127.19;5052535;28;19928;-81
2024/01/05 10:21:44;;;;;;;;;;;;;;;7.20;83.30;99137.13;5055051;28;19925;-81
2024/01/05 10:24:15;;;;;;;;;;;;;;;7.32;83.02;99137.69;5051357;28;19925;-81
2024/01/05 10:26:43;;;;;;;;;;;;;;;7.39;82.70;99132.38;5052559;28;19935;-81
2024/01/05 10:29:13;;;;;;;;;;;;;;;7.46;82.15;99142.63;5051410;28;19925;-81
2024/01/05 10:31:40;;;;;;;;;;;;;;;7.51;82.30;99136.44;5052543;28;20015;-81
2024/01/05 10:34:07;;;;;;;;;;;;;;;7.49;81.85;99136.47;5051196;28;19925;-82
2024/01/05 10:36:34;;;;;;;;;;;;;;;7.49;81.65;99139.94;5048856;28;20112;-81
2024/01/05 10:39:03;;;;;;;;;;;;;;;7.52;81.53;99144.22;5046583;28;19986;-82
2024/01/05 10:41:29;;;;;;;;;;;;;;;7.50;82.35;99135.56;5028913;28;19936;-82
2024/01/05 10:43:56;;;;;;;;;;;;;;;7.48;81.83;99135.59;5048375;28;20011;-82
2024/01/05 10:46:23;;;;;;;;;;;;;;;7.49;81.66;99128.66;5050867;28;19955;-82
2024/01/05 10:48:50;;;;;;;;;;;;;;;7.58;79.65;99123.19;5054307;28;19925;-82
2024/01/05 10:51:22;;;;;;;;;;;;;;;7.70;78.32;99118.59;5036808;28;19963;-82
2024/01/05 10:53:50;;;;;;;;;;;;;;;7.77;78.13;99117.53;5037378;28;19952;-82
2024/01/05 10:56:20;;;;;;;;;;;;;;;7.86;74.74;99109.47;5032004;28;19935;-82
2024/01/05 10:58:50;;;;;;;;;;;;;;;7.99;73.59;99110.88;5048239;28;19924;-82
2024/01/05 11:01:19;;;;;;;;;;;;;;;8.07;71.95;99104.59;5049324;28;19943;-83
2024/01/05 11:03:48;;;;;;;;;;;;;;;8.11;73.02;99101.00;5041006;28;19928;-83
2024/01/05 11:06:14;;;;;;;;;;;;;;;8.19;71.15;99106.88;5046912;28;19987;-83
2024/01/05 11:09:01;;;;;;;;;;;;;;;8.30;70.51;99102.22;5041752;28;19936;-84
2024/01/05 11:11:50;;;;;;;;;;;;;;;8.36;72.77;99103.81;5036264;28;19939;-82
2024/01/05 11:14:20;;;;;;;;;;;;;;;8.33;70.75;99094.28;5039329;28;19975;-84
2024/01/05 11:16:55;;;;;;;;;;;;;;;8.34;70.77;99090.78;5041510;28;19935;-84
2024/01/05 11:19:31;;;;;;;;;;;;;;;8.38;70.18;99093.31;5041499;28;19929;-82
2024/01/05 11:22:06;;;;;;;;;;;;;;;8.43;69.40;99088.81;5039950;28;19939;-84
2024/01/05 11:24:33;;;;;;;;;;;;;;;8.43;69.76;99091.41;5046547;28;19924;-83
2024/01/05 11:27:00;;;;;;;;;;;;;;;8.45;70.15;99089.66;5035272;28;19932;-82
2024/01/05 11:29:45;;;;;;;;;;;;;;;8.43;70.51;99087.06;5037735;28;19925;-82
2024/01/05 11:32:47;;;;;;;;;;;;;;;8.43;69.23;99081.84;5040241;28;19979;-82
2024/01/05 11:35:19;;;;;;;;;;;;;;;8.50;70.58;99070.34;5045647;28;19932;-82
2024/01/05 11:37:47;;;;;;;;;;;;;;;8.47;68.85;99075.66;5034569;28;20005;-83
2024/01/05 11:40:25;;;;;;;;;;;;;;;8.53;68.77;99079.88;5042233;28;19948;-82
2024/01/05 11:42:52;;;;;;;;;;;;;;;8.59;70.45;99070.97;5044717;28;20016;-82
2024/01/05 11:45:38;;;;;;;;;;;;;;;8.52;69.16;99075.53;5044237;28;19990;-83
2024/01/05 11:48:04;;;;;;;;;;;;;;;8.51;68.58;99069.41;5041076;28;19936;-83
2024/01/05 11:50:35;;;;;;;;;;;;;;;8.51;68.90;99068.56;5028169;28;19929;-82
2024/01/05 11:53:08;;;;;;;;;;;;;;;8.51;68.78;99071.19;5053353;28;19925;-83
2024/01/05 11:55:40;;;;;;;;;;;;;;;8.52;67.48;99068.53;5051851;28;19983;-82
2024/01/05 11:58:12;;;;;;;;;;;;;;;8.58;67.85;99067.50;5048067;28;20015;-82
2024/01/05 12:00:42;;;;;;;;;;;;;;;8.59;68.48;99061.38;5045605;28;20471;-82
2024/01/05 12:03:09;;;;;;;;;;;;;;;8.66;69.78;99057.69;5044816;28;20024;-83
2024/01/05 12:05:39;;;;;;;;;;;;;;;8.67;69.30;99066.38;5045561;28;20047;-82
2024/01/05 12:08:10;;;;;;;;;;;;;;;8.66;69.21;99059.41;5040538;28;19939;-82
2024/01/05 12:10:38;;;;;;;;;;;;;;;8.73;67.85;99060.09;5047477;28;19987;-83
2024/01/05 12:13:05;;;;;;;;;;;;;;;8.75;68.85;99067.00;5043982;28;19944;-82
2024/01/05 12:15:32;;;;;;;;;;;;;;;8.75;68.02;99067.00;5048677;28;19924;-82
2024/01/05 12:18:03;;;;;;;;;;;;;;;8.74;67.35;99070.53;5049715;28;19948;-83
2024/01/05 12:20:30;;;;;;;;;;;;;;;8.75;67.92;99066.13;5044727;28;19924;-82
2024/01/05 12:22:57;;;;;;;;;;;;;;;8.74;68.07;99067.06;5051316;28;19943;-82
2024/01/05 12:25:24;;;;;;;;;;;;;;;8.80;67.27;99061.63;5045970;28;19943;-84
2024/01/05 12:27:51;;;;;;;;;;;;;;;8.79;67.58;99065.16;5042014;28;19925;-82
2024/01/05 12:30:17;;;;;;;;;;;;;;;8.79;68.55;99062.53;5047959;28;20016;-84
2024/01/05 12:32:44;;;;;;;;;;;;;;;8.79;67.77;99070.38;5043564;28;19964;-82
2024/01/05 12:35:11;;;;;;;;;;;;;;;8.80;67.62;99065.09;5039599;28;19948;-84
2024/01/05 12:37:48;;;;;;;;;;;;;;;8.86;68.39;99069.28;5037769;28;19959;-82
2024/01/05 12:40:15;;;;;;;;;;;;;;;8.85;66.38;99062.38;5035496;28;19929;-82
2024/01/05 12:42:42;;;;;;;;;;;;;;;8.86;67.60;99053.59;5032102;28;19925;-82
2024/01/05 12:45:09;;;;;;;;;;;;;;;8.86;67.63;99056.22;5061155;28;19924;-83
2024/01/05 12:47:36;;;;;;;;;;;;;;;8.88;66.82;99046.56;5049707;28;19975;-82
2024/01/05 12:50:07;;;;;;;;;;;;;;;8.99;67.61;99049.72;5041769;28;19929;-82
2024/01/05 12:52:35;;;;;;;;;;;;;;;9.17;67.16;99055.28;5063662;28;19925;-82
2024/01/05 12:55:03;;;;;;;;;;;;;;;9.14;68.13;99047.50;5049774;28;20133;-83
2024/01/05 12:57:31;;;;;;;;;;;;;;;9.17;67.81;99042.22;5021133;28;19925;-83
2024/01/05 13:00:05;;;;;;;;;;;;;;;9.04;67.30;99042.56;5032908;28;19936;-85